sensor_id;sensor_type;location;lat;lon;timestamp;P1;durP1;ratioP1;P2;durP2;ratioP2
21665;SDS011;10994;45.486;9.190;2022-12-07T00:01:08;27.70;;;20.33;;
21665;SDS011;10994;45.486;9.190;2022-12-07T00:03:37;28.67;;;20.33;;
21665;SDS011;10994;45.486;9.190;2022-12-07T00:06:04;26.30;;;19.80;;
21665;SDS011;10994;45.486;9.190;2022-12-07T00:08:31;27.57;;;19.27;;
21665;SDS011;10994;45.486;9.190;2022-12-07T00:11:11;20.37;;;17.53;;
21665;SDS011;10994;45.486;9.190;2022-12-07T00:13:42;30.67;;;19.87;;
21665;SDS011;10994;45.486;9.190;2022-12-07T00:18:42;29.57;;;20.73;;
21665;SDS011;10994;45.486;9.190;2022-12-07T00:21:18;27.40;;;19.60;;
21665;SDS011;10994;45.486;9.190;2022-12-07T00:23:46;25.67;;;19.23;;
21665;SDS011;10994;45.486;9.190;2022-12-07T00:26:14;25.00;;;20.33;;
21665;SDS011;10994;45.486;9.190;2022-12-07T00:28:46;28.37;;;21.73;;
21665;SDS011;10994;45.486;9.190;2022-12-07T00:31:16;27.20;;;20.93;;
21665;SDS011;10994;45.486;9.190;2022-12-07T00:33:44;29.90;;;21.03;;
21665;SDS011;10994;45.486;9.190;2022-12-07T00:36:17;28.43;;;21.37;;
21665;SDS011;10994;45.486;9.190;2022-12-07T00:38:44;29.63;;;22.10;;
21665;SDS011;10994;45.486;9.190;2022-12-07T00:41:10;28.17;;;21.30;;
21665;SDS011;10994;45.486;9.190;2022-12-07T00:43:40;28.70;;;21.93;;
21665;SDS011;10994;45.486;9.190;2022-12-07T00:46:07;25.07;;;20.43;;
21665;SDS011;10994;45.486;9.190;2022-12-07T00:48:34;26.90;;;21.83;;
21665;SDS011;10994;45.486;9.190;2022-12-07T00:51:00;29.00;;;22.80;;
21665;SDS011;10994;45.486;9.190;2022-12-07T00:53:26;29.03;;;22.17;;
21665;SDS011;10994;45.486;9.190;2022-12-07T00:55:52;28.80;;;21.87;;
21665;SDS011;10994;45.486;9.190;2022-12-07T00:58:18;32.00;;;21.67;;
21665;SDS011;10994;45.486;9.190;2022-12-07T01:00:45;29.40;;;23.20;;
21665;SDS011;10994;45.486;9.190;2022-12-07T01:03:11;29.07;;;22.23;;
21665;SDS011;10994;45.486;9.190;2022-12-07T01:05:38;31.20;;;22.97;;
21665;SDS011;10994;45.486;9.190;2022-12-07T01:08:05;30.63;;;22.47;;
21665;SDS011;10994;45.486;9.190;2022-12-07T01:10:31;28.17;;;21.63;;
21665;SDS011;10994;45.486;9.190;2022-12-07T01:12:57;29.57;;;21.77;;
21665;SDS011;10994;45.486;9.190;2022-12-07T01:15:24;31.10;;;24.40;;
21665;SDS011;10994;45.486;9.190;2022-12-07T01:17:50;29.67;;;20.40;;
21665;SDS011;10994;45.486;9.190;2022-12-07T01:20:16;26.70;;;20.83;;
21665;SDS011;10994;45.486;9.190;2022-12-07T01:22:42;27.37;;;21.07;;
21665;SDS011;10994;45.486;9.190;2022-12-07T01:25:09;24.53;;;20.23;;
21665;SDS011;10994;45.486;9.190;2022-12-07T01:27:36;32.00;;;20.20;;
21665;SDS011;10994;45.486;9.190;2022-12-07T01:30:03;25.70;;;20.00;;
21665;SDS011;10994;45.486;9.190;2022-12-07T01:32:31;23.90;;;20.83;;
21665;SDS011;10994;45.486;9.190;2022-12-07T01:34:56;24.90;;;20.73;;
21665;SDS011;10994;45.486;9.190;2022-12-07T01:37:22;24.83;;;20.50;;
21665;SDS011;10994;45.486;9.190;2022-12-07T01:39:49;25.40;;;21.00;;
21665;SDS011;10994;45.486;9.190;2022-12-07T01:42:18;26.27;;;20.70;;
21665;SDS011;10994;45.486;9.190;2022-12-07T01:47:46;24.60;;;20.13;;
21665;SDS011;10994;45.486;9.190;2022-12-07T01:50:15;33.17;;;21.03;;
21665;SDS011;10994;45.486;9.190;2022-12-07T01:52:41;29.67;;;21.10;;
21665;SDS011;10994;45.486;9.190;2022-12-07T01:55:09;30.50;;;20.30;;
21665;SDS011;10994;45.486;9.190;2022-12-07T01:57:42;26.63;;;19.60;;
21665;SDS011;10994;45.486;9.190;2022-12-07T02:00:11;25.47;;;19.70;;
21665;SDS011;10994;45.486;9.190;2022-12-07T02:02:44;24.40;;;19.80;;
21665;SDS011;10994;45.486;9.190;2022-12-07T02:05:14;26.93;;;19.07;;
21665;SDS011;10994;45.486;9.190;2022-12-07T02:07:42;23.73;;;19.03;;
21665;SDS011;10994;45.486;9.190;2022-12-07T02:10:27;25.03;;;19.70;;
21665;SDS011;10994;45.486;9.190;2022-12-07T02:13:06;23.57;;;19.40;;
21665;SDS011;10994;45.486;9.190;2022-12-07T02:24:13;25.27;;;18.90;;
21665;SDS011;10994;45.486;9.190;2022-12-07T02:29:19;23.87;;;18.43;;
21665;SDS011;10994;45.486;9.190;2022-12-07T02:34:32;21.57;;;18.63;;
21665;SDS011;10994;45.486;9.190;2022-12-07T02:37:19;25.37;;;18.93;;
21665;SDS011;10994;45.486;9.190;2022-12-07T02:39:51;25.33;;;18.00;;
21665;SDS011;10994;45.486;9.190;2022-12-07T02:42:23;25.07;;;17.93;;
21665;SDS011;10994;45.486;9.190;2022-12-07T02:44:57;23.43;;;18.10;;
21665;SDS011;10994;45.486;9.190;2022-12-07T02:47:25;22.03;;;17.60;;
21665;SDS011;10994;45.486;9.190;2022-12-07T02:49:52;20.60;;;17.03;;
21665;SDS011;10994;45.486;9.190;2022-12-07T02:52:18;20.40;;;16.53;;
21665;SDS011;10994;45.486;9.190;2022-12-07T02:54:44;21.73;;;17.37;;
21665;SDS011;10994;45.486;9.190;2022-12-07T03:04:53;20.30;;;16.63;;
21665;SDS011;10994;45.486;9.190;2022-12-07T03:10:34;19.80;;;16.20;;
21665;SDS011;10994;45.486;9.190;2022-12-07T03:18:56;19.50;;;15.80;;
21665;SDS011;10994;45.486;9.190;2022-12-07T03:21:31;18.40;;;14.80;;
21665;SDS011;10994;45.486;9.190;2022-12-07T03:24:09;24.90;;;15.67;;
21665;SDS011;10994;45.486;9.190;2022-12-07T03:26:48;18.20;;;15.07;;
21665;SDS011;10994;45.486;9.190;2022-12-07T03:29:20;19.00;;;15.47;;
21665;SDS011;10994;45.486;9.190;2022-12-07T03:32:11;20.40;;;15.40;;
21665;SDS011;10994;45.486;9.190;2022-12-07T03:34:46;18.93;;;14.47;;
21665;SDS011;10994;45.486;9.190;2022-12-07T03:37:20;19.23;;;15.33;;
21665;SDS011;10994;45.486;9.190;2022-12-07T03:42:44;19.93;;;14.90;;
21665;SDS011;10994;45.486;9.190;2022-12-07T03:45:10;18.43;;;14.20;;
21665;SDS011;10994;45.486;9.190;2022-12-07T03:47:42;18.60;;;15.00;;
21665;SDS011;10994;45.486;9.190;2022-12-07T03:50:21;21.00;;;14.80;;
21665;SDS011;10994;45.486;9.190;2022-12-07T03:55:42;18.40;;;14.03;;
21665;SDS011;10994;45.486;9.190;2022-12-07T03:58:12;18.83;;;15.10;;
21665;SDS011;10994;45.486;9.190;2022-12-07T04:00:42;17.77;;;13.90;;
21665;SDS011;10994;45.486;9.190;2022-12-07T04:03:09;19.53;;;15.10;;
21665;SDS011;10994;45.486;9.190;2022-12-07T04:05:35;16.23;;;13.97;;
21665;SDS011;10994;45.486;9.190;2022-12-07T04:08:01;19.77;;;15.07;;
21665;SDS011;10994;45.486;9.190;2022-12-07T04:10:27;16.77;;;13.27;;
21665;SDS011;10994;45.486;9.190;2022-12-07T04:12:53;16.37;;;12.17;;
21665;SDS011;10994;45.486;9.190;2022-12-07T04:15:19;15.33;;;12.33;;
21665;SDS011;10994;45.486;9.190;2022-12-07T04:17:44;17.17;;;12.87;;
21665;SDS011;10994;45.486;9.190;2022-12-07T04:20:10;14.83;;;12.50;;
21665;SDS011;10994;45.486;9.190;2022-12-07T04:22:36;17.30;;;13.83;;
21665;SDS011;10994;45.486;9.190;2022-12-07T04:25:02;16.87;;;13.13;;
21665;SDS011;10994;45.486;9.190;2022-12-07T04:27:28;21.67;;;14.17;;
21665;SDS011;10994;45.486;9.190;2022-12-07T04:29:54;17.90;;;13.53;;
21665;SDS011;10994;45.486;9.190;2022-12-07T04:32:21;18.87;;;13.37;;
21665;SDS011;10994;45.486;9.190;2022-12-07T04:34:47;15.23;;;13.63;;
21665;SDS011;10994;45.486;9.190;2022-12-07T04:37:12;16.40;;;14.60;;
21665;SDS011;10994;45.486;9.190;2022-12-07T04:39:38;19.77;;;14.23;;
21665;SDS011;10994;45.486;9.190;2022-12-07T04:42:03;16.60;;;14.20;;
21665;SDS011;10994;45.486;9.190;2022-12-07T04:44:29;19.27;;;13.73;;
21665;SDS011;10994;45.486;9.190;2022-12-07T04:46:56;19.87;;;14.57;;
21665;SDS011;10994;45.486;9.190;2022-12-07T04:49:22;16.87;;;14.13;;
21665;SDS011;10994;45.486;9.190;2022-12-07T04:51:48;19.03;;;14.77;;
21665;SDS011;10994;45.486;9.190;2022-12-07T04:54:15;15.83;;;13.10;;
21665;SDS011;10994;45.486;9.190;2022-12-07T04:56:41;19.27;;;13.17;;
21665;SDS011;10994;45.486;9.190;2022-12-07T04:59:07;17.57;;;13.97;;
21665;SDS011;10994;45.486;9.190;2022-12-07T05:01:34;16.43;;;12.80;;
21665;SDS011;10994;45.486;9.190;2022-12-07T05:04:00;15.23;;;12.70;;
21665;SDS011;10994;45.486;9.190;2022-12-07T05:06:26;14.93;;;12.53;;
21665;SDS011;10994;45.486;9.190;2022-12-07T05:08:51;15.20;;;13.20;;
21665;SDS011;10994;45.486;9.190;2022-12-07T05:11:17;18.23;;;13.00;;
21665;SDS011;10994;45.486;9.190;2022-12-07T05:14:02;17.53;;;13.43;;
21665;SDS011;10994;45.486;9.190;2022-12-07T05:16:29;15.60;;;12.40;;
21665;SDS011;10994;45.486;9.190;2022-12-07T05:18:55;14.97;;;13.10;;
21665;SDS011;10994;45.486;9.190;2022-12-07T05:21:21;17.13;;;13.10;;
21665;SDS011;10994;45.486;9.190;2022-12-07T05:23:47;18.70;;;12.73;;
21665;SDS011;10994;45.486;9.190;2022-12-07T05:26:13;15.00;;;13.37;;
21665;SDS011;10994;45.486;9.190;2022-12-07T05:28:38;20.53;;;13.03;;
21665;SDS011;10994;45.486;9.190;2022-12-07T05:31:04;16.40;;;13.30;;
21665;SDS011;10994;45.486;9.190;2022-12-07T05:33:30;15.50;;;12.83;;
21665;SDS011;10994;45.486;9.190;2022-12-07T05:35:55;17.03;;;13.13;;
21665;SDS011;10994;45.486;9.190;2022-12-07T05:38:21;15.77;;;13.20;;
21665;SDS011;10994;45.486;9.190;2022-12-07T05:40:47;17.00;;;13.30;;
21665;SDS011;10994;45.486;9.190;2022-12-07T05:43:13;17.53;;;13.43;;
21665;SDS011;10994;45.486;9.190;2022-12-07T05:45:39;18.60;;;13.23;;
21665;SDS011;10994;45.486;9.190;2022-12-07T05:48:05;16.47;;;13.40;;
21665;SDS011;10994;45.486;9.190;2022-12-07T05:50:31;16.53;;;12.43;;
21665;SDS011;10994;45.486;9.190;2022-12-07T05:52:59;16.60;;;12.87;;
21665;SDS011;10994;45.486;9.190;2022-12-07T05:55:25;13.50;;;12.10;;
21665;SDS011;10994;45.486;9.190;2022-12-07T05:57:51;14.43;;;12.17;;
21665;SDS011;10994;45.486;9.190;2022-12-07T06:00:35;14.50;;;12.60;;
21665;SDS011;10994;45.486;9.190;2022-12-07T06:03:01;14.20;;;11.80;;
21665;SDS011;10994;45.486;9.190;2022-12-07T06:05:27;15.10;;;12.17;;
21665;SDS011;10994;45.486;9.190;2022-12-07T06:07:53;14.23;;;12.50;;
21665;SDS011;10994;45.486;9.190;2022-12-07T06:10:19;14.37;;;11.90;;
21665;SDS011;10994;45.486;9.190;2022-12-07T06:12:44;15.90;;;11.93;;
21665;SDS011;10994;45.486;9.190;2022-12-07T06:15:11;14.83;;;12.80;;
21665;SDS011;10994;45.486;9.190;2022-12-07T06:17:38;15.17;;;12.63;;
21665;SDS011;10994;45.486;9.190;2022-12-07T06:20:04;14.90;;;13.30;;
21665;SDS011;10994;45.486;9.190;2022-12-07T06:22:31;14.87;;;12.00;;
21665;SDS011;10994;45.486;9.190;2022-12-07T06:24:57;13.97;;;12.40;;
21665;SDS011;10994;45.486;9.190;2022-12-07T06:27:22;17.10;;;12.27;;
21665;SDS011;10994;45.486;9.190;2022-12-07T06:29:48;14.13;;;12.43;;
21665;SDS011;10994;45.486;9.190;2022-12-07T06:32:14;15.40;;;12.23;;
21665;SDS011;10994;45.486;9.190;2022-12-07T06:34:40;18.07;;;13.13;;
21665;SDS011;10994;45.486;9.190;2022-12-07T06:37:05;14.50;;;12.57;;
21665;SDS011;10994;45.486;9.190;2022-12-07T06:39:31;17.47;;;13.80;;
21665;SDS011;10994;45.486;9.190;2022-12-07T06:41:57;16.50;;;13.47;;
21665;SDS011;10994;45.486;9.190;2022-12-07T06:44:23;17.73;;;13.33;;
21665;SDS011;10994;45.486;9.190;2022-12-07T06:46:50;16.90;;;13.63;;
21665;SDS011;10994;45.486;9.190;2022-12-07T06:49:16;16.17;;;12.77;;
21665;SDS011;10994;45.486;9.190;2022-12-07T06:51:42;17.47;;;13.07;;
21665;SDS011;10994;45.486;9.190;2022-12-07T06:54:09;14.17;;;12.47;;
21665;SDS011;10994;45.486;9.190;2022-12-07T06:56:36;16.13;;;13.73;;
21665;SDS011;10994;45.486;9.190;2022-12-07T06:59:02;16.23;;;14.20;;
21665;SDS011;10994;45.486;9.190;2022-12-07T07:01:28;16.83;;;14.53;;
21665;SDS011;10994;45.486;9.190;2022-12-07T07:03:54;18.43;;;14.47;;
21665;SDS011;10994;45.486;9.190;2022-12-07T07:06:20;16.43;;;12.90;;
21665;SDS011;10994;45.486;9.190;2022-12-07T07:08:45;16.87;;;13.60;;
21665;SDS011;10994;45.486;9.190;2022-12-07T07:11:11;16.63;;;13.97;;
21665;SDS011;10994;45.486;9.190;2022-12-07T07:13:37;16.27;;;13.23;;
21665;SDS011;10994;45.486;9.190;2022-12-07T07:16:03;16.30;;;12.93;;
21665;SDS011;10994;45.486;9.190;2022-12-07T07:18:29;13.17;;;11.77;;
21665;SDS011;10994;45.486;9.190;2022-12-07T07:20:55;16.00;;;12.00;;
21665;SDS011;10994;45.486;9.190;2022-12-07T07:23:21;15.37;;;11.53;;
21665;SDS011;10994;45.486;9.190;2022-12-07T07:25:47;14.87;;;12.80;;
21665;SDS011;10994;45.486;9.190;2022-12-07T07:28:13;12.93;;;11.57;;
21665;SDS011;10994;45.486;9.190;2022-12-07T07:30:39;14.00;;;11.43;;
21665;SDS011;10994;45.486;9.190;2022-12-07T07:33:05;19.63;;;17.30;;
21665;SDS011;10994;45.486;9.190;2022-12-07T07:35:32;12.33;;;10.87;;
21665;SDS011;10994;45.486;9.190;2022-12-07T07:37:59;14.60;;;11.77;;
21665;SDS011;10994;45.486;9.190;2022-12-07T07:40:25;12.53;;;10.93;;
21665;SDS011;10994;45.486;9.190;2022-12-07T07:42:51;11.83;;;10.63;;
21665;SDS011;10994;45.486;9.190;2022-12-07T07:45:18;13.00;;;11.50;;
21665;SDS011;10994;45.486;9.190;2022-12-07T07:47:46;16.17;;;11.60;;
21665;SDS011;10994;45.486;9.190;2022-12-07T07:50:12;13.67;;;11.47;;
21665;SDS011;10994;45.486;9.190;2022-12-07T07:52:38;15.60;;;11.73;;
21665;SDS011;10994;45.486;9.190;2022-12-07T07:55:04;14.83;;;12.03;;
21665;SDS011;10994;45.486;9.190;2022-12-07T07:57:30;16.20;;;12.10;;
21665;SDS011;10994;45.486;9.190;2022-12-07T07:59:56;16.23;;;12.63;;
21665;SDS011;10994;45.486;9.190;2022-12-07T08:02:22;15.77;;;12.53;;
21665;SDS011;10994;45.486;9.190;2022-12-07T08:04:48;15.17;;;12.63;;
21665;SDS011;10994;45.486;9.190;2022-12-07T08:07:14;17.33;;;12.63;;
21665;SDS011;10994;45.486;9.190;2022-12-07T08:09:44;16.90;;;13.73;;
21665;SDS011;10994;45.486;9.190;2022-12-07T08:12:09;16.07;;;13.53;;
21665;SDS011;10994;45.486;9.190;2022-12-07T08:14:35;16.00;;;14.30;;
21665;SDS011;10994;45.486;9.190;2022-12-07T08:17:01;17.17;;;13.50;;
21665;SDS011;10994;45.486;9.190;2022-12-07T08:19:27;16.57;;;13.63;;
21665;SDS011;10994;45.486;9.190;2022-12-07T08:21:53;17.97;;;13.37;;
21665;SDS011;10994;45.486;9.190;2022-12-07T08:24:22;22.33;;;15.73;;
21665;SDS011;10994;45.486;9.190;2022-12-07T08:26:51;28.63;;;16.67;;
21665;SDS011;10994;45.486;9.190;2022-12-07T08:29:19;28.40;;;18.17;;
21665;SDS011;10994;45.486;9.190;2022-12-07T08:31:45;29.53;;;18.90;;
21665;SDS011;10994;45.486;9.190;2022-12-07T08:34:11;26.23;;;17.87;;
21665;SDS011;10994;45.486;9.190;2022-12-07T08:36:37;30.40;;;19.77;;
21665;SDS011;10994;45.486;9.190;2022-12-07T08:39:03;27.00;;;18.73;;
21665;SDS011;10994;45.486;9.190;2022-12-07T08:41:29;31.60;;;19.57;;
21665;SDS011;10994;45.486;9.190;2022-12-07T08:43:55;28.30;;;19.27;;
21665;SDS011;10994;45.486;9.190;2022-12-07T08:48:59;30.00;;;19.13;;
21665;SDS011;10994;45.486;9.190;2022-12-07T08:51:29;30.67;;;18.97;;
21665;SDS011;10994;45.486;9.190;2022-12-07T08:53:55;30.80;;;18.93;;
21665;SDS011;10994;45.486;9.190;2022-12-07T08:56:24;30.90;;;19.13;;
21665;SDS011;10994;45.486;9.190;2022-12-07T08:58:50;43.07;;;25.90;;
21665;SDS011;10994;45.486;9.190;2022-12-07T09:01:16;34.53;;;21.03;;
21665;SDS011;10994;45.486;9.190;2022-12-07T09:03:42;33.47;;;19.33;;
21665;SDS011;10994;45.486;9.190;2022-12-07T09:06:08;33.27;;;19.73;;
21665;SDS011;10994;45.486;9.190;2022-12-07T09:08:35;34.43;;;20.80;;
21665;SDS011;10994;45.486;9.190;2022-12-07T09:11:03;31.97;;;20.63;;
21665;SDS011;10994;45.486;9.190;2022-12-07T09:13:29;39.07;;;21.77;;
21665;SDS011;10994;45.486;9.190;2022-12-07T09:15:54;33.73;;;20.93;;
21665;SDS011;10994;45.486;9.190;2022-12-07T09:18:20;32.07;;;20.50;;
21665;SDS011;10994;45.486;9.190;2022-12-07T09:20:46;31.80;;;20.70;;
21665;SDS011;10994;45.486;9.190;2022-12-07T09:23:11;29.93;;;20.40;;
21665;SDS011;10994;45.486;9.190;2022-12-07T09:25:37;33.10;;;20.10;;
21665;SDS011;10994;45.486;9.190;2022-12-07T09:28:03;36.00;;;19.77;;
21665;SDS011;10994;45.486;9.190;2022-12-07T09:30:29;29.53;;;20.43;;
21665;SDS011;10994;45.486;9.190;2022-12-07T09:32:55;38.27;;;20.17;;
21665;SDS011;10994;45.486;9.190;2022-12-07T09:35:22;34.23;;;19.80;;
21665;SDS011;10994;45.486;9.190;2022-12-07T09:37:48;29.97;;;19.60;;
21665;SDS011;10994;45.486;9.190;2022-12-07T09:40:14;26.43;;;18.43;;
21665;SDS011;10994;45.486;9.190;2022-12-07T09:42:43;31.77;;;19.27;;
21665;SDS011;10994;45.486;9.190;2022-12-07T09:45:18;29.87;;;18.23;;
21665;SDS011;10994;45.486;9.190;2022-12-07T09:47:50;27.03;;;17.57;;
21665;SDS011;10994;45.486;9.190;2022-12-07T09:50:17;29.80;;;20.00;;
21665;SDS011;10994;45.486;9.190;2022-12-07T09:52:46;28.13;;;20.47;;
21665;SDS011;10994;45.486;9.190;2022-12-07T09:55:18;25.43;;;18.07;;
21665;SDS011;10994;45.486;9.190;2022-12-07T09:57:49;27.90;;;17.93;;
21665;SDS011;10994;45.486;9.190;2022-12-07T10:00:17;30.33;;;18.30;;
21665;SDS011;10994;45.486;9.190;2022-12-07T10:02:56;26.70;;;18.27;;
21665;SDS011;10994;45.486;9.190;2022-12-07T10:05:39;32.23;;;20.00;;
21665;SDS011;10994;45.486;9.190;2022-12-07T10:08:09;27.93;;;18.63;;
21665;SDS011;10994;45.486;9.190;2022-12-07T10:10:39;29.17;;;18.33;;
21665;SDS011;10994;45.486;9.190;2022-12-07T10:13:10;28.07;;;18.47;;
21665;SDS011;10994;45.486;9.190;2022-12-07T10:15:48;26.87;;;17.67;;
21665;SDS011;10994;45.486;9.190;2022-12-07T10:21:23;27.53;;;18.43;;
21665;SDS011;10994;45.486;9.190;2022-12-07T10:29:22;25.10;;;18.03;;
21665;SDS011;10994;45.486;9.190;2022-12-07T10:32:27;23.20;;;17.13;;
21665;SDS011;10994;45.486;9.190;2022-12-07T10:34:44;21.83;;;16.50;;
21665;SDS011;10994;45.486;9.190;2022-12-07T10:42:25;21.57;;;16.10;;
21665;SDS011;10994;45.486;9.190;2022-12-07T10:47:38;20.40;;;15.80;;
21665;SDS011;10994;45.486;9.190;2022-12-07T10:50:25;21.50;;;15.73;;
21665;SDS011;10994;45.486;9.190;2022-12-07T11:01:26;24.03;;;16.47;;
21665;SDS011;10994;45.486;9.190;2022-12-07T11:20:28;26.03;;;19.10;;
21665;SDS011;10994;45.486;9.190;2022-12-07T11:23:10;29.13;;;18.83;;
21665;SDS011;10994;45.486;9.190;2022-12-07T11:25:52;25.80;;;17.73;;
21665;SDS011;10994;45.486;9.190;2022-12-07T11:36:42;27.10;;;18.47;;
21665;SDS011;10994;45.486;9.190;2022-12-07T11:41:52;30.33;;;19.63;;
21665;SDS011;10994;45.486;9.190;2022-12-07T11:44:31;28.97;;;19.07;;
21665;SDS011;10994;45.486;9.190;2022-12-07T11:47:05;27.97;;;19.70;;
21665;SDS011;10994;45.486;9.190;2022-12-07T11:55:30;33.17;;;22.70;;
21665;SDS011;10994;45.486;9.190;2022-12-07T11:58:08;33.20;;;21.00;;
21665;SDS011;10994;45.486;9.190;2022-12-07T12:00:46;34.90;;;23.37;;
21665;SDS011;10994;45.486;9.190;2022-12-07T12:03:30;36.27;;;25.33;;
21665;SDS011;10994;45.486;9.190;2022-12-07T12:06:02;40.00;;;25.70;;
21665;SDS011;10994;45.486;9.190;2022-12-07T12:08:28;43.77;;;29.50;;
21665;SDS011;10994;45.486;9.190;2022-12-07T12:19:35;43.57;;;29.07;;
21665;SDS011;10994;45.486;9.190;2022-12-07T12:22:39;46.57;;;28.23;;
21665;SDS011;10994;45.486;9.190;2022-12-07T12:25:17;39.83;;;28.47;;
21665;SDS011;10994;45.486;9.190;2022-12-07T12:27:48;40.53;;;27.80;;
21665;SDS011;10994;45.486;9.190;2022-12-07T12:33:11;42.43;;;26.83;;
21665;SDS011;10994;45.486;9.190;2022-12-07T12:35:41;41.33;;;26.90;;
21665;SDS011;10994;45.486;9.190;2022-12-07T12:38:27;46.47;;;28.47;;
21665;SDS011;10994;45.486;9.190;2022-12-07T12:40:56;41.73;;;27.10;;
21665;SDS011;10994;45.486;9.190;2022-12-07T12:59:36;49.87;;;29.77;;
21665;SDS011;10994;45.486;9.190;2022-12-07T13:02:20;43.07;;;26.40;;
21665;SDS011;10994;45.486;9.190;2022-12-07T13:18:39;49.10;;;27.87;;
21665;SDS011;10994;45.486;9.190;2022-12-07T13:26:16;45.07;;;27.83;;
21665;SDS011;10994;45.486;9.190;2022-12-07T13:28:44;41.23;;;26.50;;
21665;SDS011;10994;45.486;9.190;2022-12-07T13:33:58;39.83;;;28.67;;
21665;SDS011;10994;45.486;9.190;2022-12-07T13:36:46;38.00;;;26.80;;
21665;SDS011;10994;45.486;9.190;2022-12-07T13:39:16;36.60;;;25.33;;
21665;SDS011;10994;45.486;9.190;2022-12-07T13:41:44;40.03;;;25.50;;
21665;SDS011;10994;45.486;9.190;2022-12-07T13:44:16;40.03;;;26.33;;
21665;SDS011;10994;45.486;9.190;2022-12-07T13:49:52;39.40;;;27.60;;
21665;SDS011;10994;45.486;9.190;2022-12-07T13:57:25;35.93;;;25.23;;
21665;SDS011;10994;45.486;9.190;2022-12-07T13:59:52;37.67;;;25.60;;
21665;SDS011;10994;45.486;9.190;2022-12-07T14:02:31;33.13;;;24.13;;
21665;SDS011;10994;45.486;9.190;2022-12-07T14:05:08;29.30;;;22.30;;
21665;SDS011;10994;45.486;9.190;2022-12-07T14:07:48;30.50;;;20.87;;
21665;SDS011;10994;45.486;9.190;2022-12-07T14:10:28;27.93;;;20.77;;
21665;SDS011;10994;45.486;9.190;2022-12-07T14:12:57;31.63;;;19.43;;
21665;SDS011;10994;45.486;9.190;2022-12-07T14:15:29;24.23;;;18.23;;
21665;SDS011;10994;45.486;9.190;2022-12-07T14:17:58;26.43;;;19.67;;
21665;SDS011;10994;45.486;9.190;2022-12-07T14:23:02;22.67;;;17.53;;
21665;SDS011;10994;45.486;9.190;2022-12-07T14:25:46;24.00;;;17.57;;
21665;SDS011;10994;45.486;9.190;2022-12-07T14:28:30;24.10;;;17.77;;
21665;SDS011;10994;45.486;9.190;2022-12-07T14:30:57;23.67;;;17.07;;
21665;SDS011;10994;45.486;9.190;2022-12-07T14:33:24;23.00;;;16.43;;
21665;SDS011;10994;45.486;9.190;2022-12-07T14:35:50;24.87;;;17.23;;
21665;SDS011;10994;45.486;9.190;2022-12-07T14:38:20;21.80;;;16.80;;
21665;SDS011;10994;45.486;9.190;2022-12-07T14:40:49;23.27;;;16.00;;
21665;SDS011;10994;45.486;9.190;2022-12-07T14:43:16;23.93;;;16.83;;
21665;SDS011;10994;45.486;9.190;2022-12-07T14:45:44;19.87;;;14.83;;
21665;SDS011;10994;45.486;9.190;2022-12-07T14:48:13;20.77;;;16.50;;
21665;SDS011;10994;45.486;9.190;2022-12-07T14:50:43;19.30;;;14.73;;
21665;SDS011;10994;45.486;9.190;2022-12-07T14:53:15;19.33;;;14.17;;
21665;SDS011;10994;45.486;9.190;2022-12-07T14:55:43;19.73;;;14.57;;
21665;SDS011;10994;45.486;9.190;2022-12-07T14:58:18;18.93;;;14.93;;
21665;SDS011;10994;45.486;9.190;2022-12-07T15:00:44;20.30;;;14.73;;
21665;SDS011;10994;45.486;9.190;2022-12-07T15:03:10;22.00;;;14.57;;
21665;SDS011;10994;45.486;9.190;2022-12-07T15:05:38;18.57;;;13.37;;
21665;SDS011;10994;45.486;9.190;2022-12-07T15:08:03;18.10;;;14.10;;
21665;SDS011;10994;45.486;9.190;2022-12-07T15:10:31;27.33;;;15.83;;
21665;SDS011;10994;45.486;9.190;2022-12-07T15:13:02;21.00;;;14.17;;
21665;SDS011;10994;45.486;9.190;2022-12-07T15:15:47;17.80;;;13.17;;
21665;SDS011;10994;45.486;9.190;2022-12-07T15:18:14;15.77;;;13.20;;
21665;SDS011;10994;45.486;9.190;2022-12-07T15:20:40;18.30;;;13.37;;
21665;SDS011;10994;45.486;9.190;2022-12-07T15:23:06;16.00;;;13.53;;
21665;SDS011;10994;45.486;9.190;2022-12-07T15:25:32;18.03;;;14.03;;
21665;SDS011;10994;45.486;9.190;2022-12-07T15:27:59;18.10;;;15.00;;
21665;SDS011;10994;45.486;9.190;2022-12-07T15:30:24;18.20;;;13.70;;
21665;SDS011;10994;45.486;9.190;2022-12-07T15:32:50;16.90;;;13.50;;
21665;SDS011;10994;45.486;9.190;2022-12-07T15:35:17;17.17;;;14.60;;
21665;SDS011;10994;45.486;9.190;2022-12-07T15:37:42;18.83;;;14.10;;
21665;SDS011;10994;45.486;9.190;2022-12-07T15:40:08;19.40;;;13.57;;
21665;SDS011;10994;45.486;9.190;2022-12-07T15:42:35;15.47;;;12.83;;
21665;SDS011;10994;45.486;9.190;2022-12-07T15:45:01;21.13;;;14.73;;
21665;SDS011;10994;45.486;9.190;2022-12-07T15:47:35;18.73;;;13.53;;
21665;SDS011;10994;45.486;9.190;2022-12-07T15:50:11;15.63;;;13.40;;
21665;SDS011;10994;45.486;9.190;2022-12-07T15:52:40;19.30;;;14.93;;
21665;SDS011;10994;45.486;9.190;2022-12-07T15:55:06;19.73;;;14.43;;
21665;SDS011;10994;45.486;9.190;2022-12-07T15:57:35;16.47;;;13.23;;
21665;SDS011;10994;45.486;9.190;2022-12-07T16:00:03;18.70;;;13.33;;
21665;SDS011;10994;45.486;9.190;2022-12-07T16:02:29;16.90;;;14.60;;
21665;SDS011;10994;45.486;9.190;2022-12-07T16:04:55;17.87;;;13.60;;
21665;SDS011;10994;45.486;9.190;2022-12-07T16:07:20;15.73;;;12.90;;
21665;SDS011;10994;45.486;9.190;2022-12-07T16:09:46;16.70;;;13.63;;
21665;SDS011;10994;45.486;9.190;2022-12-07T16:12:12;19.07;;;15.30;;
21665;SDS011;10994;45.486;9.190;2022-12-07T16:14:38;16.93;;;11.97;;
21665;SDS011;10994;45.486;9.190;2022-12-07T16:17:05;18.07;;;13.97;;
21665;SDS011;10994;45.486;9.190;2022-12-07T16:19:31;19.83;;;13.40;;
21665;SDS011;10994;45.486;9.190;2022-12-07T16:21:57;16.27;;;13.73;;
21665;SDS011;10994;45.486;9.190;2022-12-07T16:24:24;19.00;;;14.20;;
21665;SDS011;10994;45.486;9.190;2022-12-07T16:26:50;18.60;;;14.50;;
21665;SDS011;10994;45.486;9.190;2022-12-07T16:29:17;21.27;;;14.33;;
21665;SDS011;10994;45.486;9.190;2022-12-07T16:32:45;17.23;;;13.53;;
21665;SDS011;10994;45.486;9.190;2022-12-07T16:35:11;17.83;;;12.53;;
21665;SDS011;10994;45.486;9.190;2022-12-07T16:37:37;18.60;;;13.80;;
21665;SDS011;10994;45.486;9.190;2022-12-07T16:40:04;18.27;;;13.40;;
21665;SDS011;10994;45.486;9.190;2022-12-07T16:42:33;19.47;;;13.83;;
21665;SDS011;10994;45.486;9.190;2022-12-07T16:45:00;16.80;;;13.77;;
21665;SDS011;10994;45.486;9.190;2022-12-07T16:47:26;15.67;;;14.00;;
21665;SDS011;10994;45.486;9.190;2022-12-07T16:49:52;20.77;;;14.23;;
21665;SDS011;10994;45.486;9.190;2022-12-07T16:52:18;20.40;;;16.37;;
21665;SDS011;10994;45.486;9.190;2022-12-07T16:54:45;20.13;;;16.10;;
21665;SDS011;10994;45.486;9.190;2022-12-07T16:57:11;21.83;;;16.93;;
21665;SDS011;10994;45.486;9.190;2022-12-07T16:59:37;20.97;;;16.40;;
21665;SDS011;10994;45.486;9.190;2022-12-07T17:02:03;23.77;;;17.50;;
21665;SDS011;10994;45.486;9.190;2022-12-07T17:04:29;19.17;;;16.50;;
21665;SDS011;10994;45.486;9.190;2022-12-07T17:06:54;20.87;;;16.83;;
21665;SDS011;10994;45.486;9.190;2022-12-07T17:09:20;24.57;;;16.47;;
21665;SDS011;10994;45.486;9.190;2022-12-07T17:11:46;19.43;;;15.53;;
21665;SDS011;10994;45.486;9.190;2022-12-07T17:14:11;23.20;;;17.73;;